Terminal Aerodrome Forecast
Issued by NWS Sioux Falls, SD

Home | Current Version | Previous Version | Text Only | Print | Product List | Glossary Off
Versions: 1 2 3 4 5 6 7 8 9 10 11 12 13

093
FTUS43 KFSD 250004 RRA
TAFHON
TAF
KHON 250004Z 2500/2524 15011KT P6SM SKC
     FM250500 14013G19KT P6SM FEW120
     FM251100 16015G23KT P6SM SCT120
     FM251700 19013KT P6SM BKN130
     FM251800 23008KT P6SM SCT045 BKN100=

USA.gov is the U.S. government's official web portal to all federal, state and local government web resources and services.